createdAt,value
2022-12-29T00:00:24.606Z,11.68
2022-12-29T00:01:26.236Z,11.68
2022-12-29T00:02:27.998Z,13.05
2022-12-29T00:03:29.820Z,12.20
2022-12-29T00:04:31.662Z,13.07
2022-12-29T00:05:33.368Z,12.30
2022-12-29T00:06:34.963Z,12.88
2022-12-29T00:07:36.568Z,13.18
2022-12-29T00:08:41.310Z,13.52
2022-12-29T00:09:43.190Z,12.90
2022-12-29T00:10:44.770Z,12.50
2022-12-29T00:11:46.424Z,12.70
2022-12-29T00:13:06.632Z,12.83
2022-12-29T00:14:28.799Z,12.00
2022-12-29T00:15:39.429Z,12.88
2022-12-29T00:16:45.499Z,12.35
2022-12-29T00:17:47.095Z,12.18
2022-12-29T00:18:48.813Z,13.25
2022-12-29T00:20:08.937Z,13.73
2022-12-29T00:21:36.796Z,12.30
2022-12-29T00:22:58.655Z,12.52
2022-12-29T00:24:19.258Z,12.30
2022-12-29T00:25:39.372Z,11.50
2022-12-29T00:26:59.488Z,12.25
2022-12-29T00:28:19.320Z,12.37
2022-12-29T00:29:39.193Z,11.85
2022-12-29T00:30:59.069Z,12.80
2022-12-29T00:32:18.950Z,12.25
2022-12-29T00:33:40.250Z,11.45
2022-12-29T00:35:00.160Z,12.18
2022-12-29T00:36:13.658Z,11.20
2022-12-29T00:37:15.849Z,11.60
2022-12-29T00:38:36.017Z,11.55
2022-12-29T00:39:56.141Z,11.82
2022-12-29T00:41:16.502Z,11.18
2022-12-29T00:42:38.186Z,12.90
2022-12-29T00:43:58.545Z,11.50
2022-12-29T00:45:00.607Z,11.73
2022-12-29T00:46:02.380Z,11.85
2022-12-29T00:47:05.418Z,11.15
2022-12-29T00:48:07.199Z,12.27
2022-12-29T00:49:28.805Z,13.05
2022-12-29T00:50:30.436Z,11.43
2022-12-29T00:51:32.100Z,11.70
2022-12-29T00:52:33.701Z,11.30
2022-12-29T00:53:35.791Z,11.38
2022-12-29T00:54:38.677Z,11.02
2022-12-29T00:55:40.311Z,11.25
2022-12-29T00:56:42.120Z,11.38
2022-12-29T00:57:43.708Z,11.52
2022-12-29T00:58:45.291Z,10.32
2022-12-29T00:59:46.884Z,10.70
2022-12-29T01:00:48.483Z,10.98
2022-12-29T01:01:50.374Z,11.50
2022-12-29T01:02:52.241Z,11.82
2022-12-29T01:03:57.373Z,11.07
2022-12-29T01:05:01.795Z,10.32
2022-12-29T01:06:08.229Z,10.98
2022-12-29T01:07:09.810Z,11.23
2022-12-29T01:08:11.439Z,11.27
2022-12-29T01:09:31.794Z,10.60
2022-12-29T01:10:33.414Z,11.02
2022-12-29T01:11:35.379Z,11.27
2022-12-29T01:12:43.012Z,10.03
2022-12-29T01:13:44.800Z,10.55
2022-12-29T01:14:46.447Z,11.20
2022-12-29T01:15:52.302Z,12.45
2022-12-29T01:16:54.177Z,10.85
2022-12-29T01:17:57.013Z,10.88
2022-12-29T01:18:58.717Z,11.88
2022-12-29T01:20:00.356Z,11.40
2022-12-29T01:21:03.235Z,11.57
2022-12-29T01:22:04.904Z,11.23
2022-12-29T01:23:06.513Z,10.50
2022-12-29T01:24:09.404Z,11.27
2022-12-29T01:25:11.047Z,11.00
2022-12-29T01:26:13.437Z,10.23
2022-12-29T01:27:15.853Z,10.43
2022-12-29T01:28:22.209Z,10.40
2022-12-29T01:29:27.312Z,11.13
2022-12-29T01:30:28.960Z,11.63
2022-12-29T01:31:30.571Z,11.85
2022-12-29T01:32:32.275Z,10.88
2022-12-29T01:33:34.270Z,10.35
2022-12-29T01:34:36.060Z,11.20
2022-12-29T01:35:37.681Z,11.23
2022-12-29T01:36:39.313Z,11.83
2022-12-29T01:37:40.905Z,10.88
2022-12-29T01:38:42.547Z,11.00
2022-12-29T01:39:44.381Z,11.18
2022-12-29T01:40:47.990Z,11.38
2022-12-29T01:41:49.587Z,10.82
2022-12-29T01:42:51.209Z,11.87
2022-12-29T01:44:02.005Z,11.93
2022-12-29T01:45:10.796Z,11.85
2022-12-29T01:46:21.752Z,11.10
2022-12-29T01:47:39.886Z,10.70
2022-12-29T01:48:41.599Z,10.85
2022-12-29T01:49:43.339Z,10.73
2022-12-29T01:50:47.851Z,10.80
2022-12-29T01:52:06.279Z,11.82
2022-12-29T01:53:10.926Z,11.00
2022-12-29T01:54:21.651Z,11.35
2022-12-29T01:55:23.378Z,11.10
2022-12-29T01:56:25.028Z,11.90
2022-12-29T01:57:29.302Z,11.65
2022-12-29T01:58:33.573Z,11.00
2022-12-29T01:59:39.715Z,11.90
2022-12-29T02:00:41.470Z,10.77
2022-12-29T02:01:43.296Z,11.23
2022-12-29T02:02:47.461Z,11.32
2022-12-29T02:03:49.123Z,11.30
2022-12-29T02:04:50.774Z,10.98
2022-12-29T02:05:58.965Z,11.40
2022-12-29T02:07:20.053Z,11.18
2022-12-29T02:08:26.228Z,10.60
2022-12-29T02:09:27.832Z,11.07
2022-12-29T02:10:31.195Z,11.07
2022-12-29T02:11:32.860Z,11.32
2022-12-29T02:12:34.810Z,10.55
2022-12-29T02:13:36.460Z,12.10
2022-12-29T02:14:38.084Z,11.27
2022-12-29T02:16:09.334Z,11.55
2022-12-29T02:17:22.561Z,10.97
2022-12-29T02:18:39.307Z,11.35
2022-12-29T02:20:13.032Z,10.80
2022-12-29T02:21:37.127Z,10.73
2022-12-29T02:22:44.358Z,11.45
2022-12-29T02:24:01.154Z,10.82
2022-12-29T02:25:14.760Z,9.90
2022-12-29T02:26:37.728Z,10.68
2022-12-29T02:27:52.548Z,11.07
2022-12-29T02:29:09.218Z,10.85
2022-12-29T02:30:32.132Z,10.30
2022-12-29T02:32:02.650Z,10.30
2022-12-29T02:33:22.223Z,9.93
2022-12-29T02:34:54.813Z,10.45
2022-12-29T02:36:11.170Z,10.98
2022-12-29T02:37:25.912Z,10.88
2022-12-29T02:38:52.102Z,10.23
2022-12-29T02:40:15.515Z,10.50
2022-12-29T02:41:53.950Z,10.10
2022-12-29T02:43:13.417Z,10.50
2022-12-29T02:44:26.228Z,10.95
2022-12-29T02:45:48.343Z,10.52
2022-12-29T02:46:55.552Z,11.15
2022-12-29T02:48:12.044Z,11.30
2022-12-29T02:49:37.426Z,10.27
2022-12-29T02:50:52.451Z,10.73
2022-12-29T02:51:59.003Z,11.80
2022-12-29T02:53:07.105Z,11.48
2022-12-29T02:54:27.319Z,11.18
2022-12-29T02:55:28.934Z,10.75
2022-12-29T02:56:30.600Z,11.40
2022-12-29T02:57:34.499Z,11.10
2022-12-29T02:58:36.148Z,10.70
2022-12-29T02:59:37.999Z,11.25
2022-12-29T03:00:42.154Z,11.45
2022-12-29T03:02:19.208Z,11.50
2022-12-29T03:03:27.367Z,11.50
2022-12-29T03:04:52.232Z,11.47
2022-12-29T03:06:11.315Z,11.73
2022-12-29T03:07:26.020Z,11.00
2022-12-29T03:08:56.387Z,11.07
2022-12-29T03:10:06.805Z,11.15
2022-12-29T03:11:30.610Z,11.77
2022-12-29T03:12:54.402Z,10.93
2022-12-29T03:14:19.057Z,10.35
2022-12-29T03:15:42.500Z,11.07
2022-12-29T03:16:54.979Z,10.77
2022-12-29T03:17:59.888Z,10.10
2022-12-29T03:19:11.818Z,11.18
2022-12-29T03:20:18.487Z,11.48
2022-12-29T03:21:59.478Z,10.80
2022-12-29T03:23:04.201Z,10.80
2022-12-29T03:24:06.071Z,10.75
2022-12-29T03:25:31.943Z,11.02
2022-12-29T03:26:33.542Z,11.48
2022-12-29T03:27:37.582Z,11.05
2022-12-29T03:28:41.388Z,11.07
2022-12-29T03:29:55.929Z,11.32
2022-12-29T03:30:59.311Z,11.45
2022-12-29T03:32:00.944Z,12.88
2022-12-29T03:33:08.034Z,11.52
2022-12-29T03:34:09.636Z,11.50
2022-12-29T03:35:13.214Z,11.20
2022-12-29T03:36:21.283Z,10.77
2022-12-29T03:37:25.405Z,11.90
2022-12-29T03:38:32.607Z,12.07
2022-12-29T03:39:34.232Z,10.45
2022-12-29T03:40:35.885Z,11.88
2022-12-29T03:41:37.535Z,10.77
2022-12-29T03:42:39.158Z,11.32
2022-12-29T03:43:40.997Z,10.90
2022-12-29T03:44:43.881Z,11.60
2022-12-29T03:45:45.611Z,12.35
2022-12-29T03:46:47.392Z,12.85
2022-12-29T03:47:49.060Z,11.05
2022-12-29T03:48:50.680Z,12.15
2022-12-29T03:49:52.584Z,11.70
2022-12-29T03:50:54.352Z,11.95
2022-12-29T03:51:55.957Z,12.48
2022-12-29T03:52:57.578Z,12.65
2022-12-29T03:53:59.179Z,12.85
2022-12-29T03:55:00.862Z,12.90
2022-12-29T03:56:02.548Z,12.13
2022-12-29T03:57:04.235Z,12.07
2022-12-29T03:58:05.846Z,13.05
2022-12-29T03:59:07.456Z,13.50
2022-12-29T04:00:09.709Z,12.35
2022-12-29T04:01:11.512Z,11.60
2022-12-29T04:02:13.360Z,11.40
2022-12-29T04:03:16.303Z,12.48
2022-12-29T04:04:19.985Z,11.75
2022-12-29T04:05:21.954Z,12.68
2022-12-29T04:06:24.679Z,11.27
2022-12-29T04:07:26.338Z,12.60
2022-12-29T04:08:27.991Z,11.33
2022-12-29T04:09:30.873Z,12.13
2022-12-29T04:10:32.455Z,12.57
2022-12-29T04:11:34.646Z,11.07
2022-12-29T04:12:36.425Z,11.98
2022-12-29T04:13:41.804Z,12.45
2022-12-29T04:14:43.510Z,11.90
2022-12-29T04:15:46.315Z,12.50
2022-12-29T04:16:47.991Z,12.57
2022-12-29T04:17:49.668Z,12.18
2022-12-29T04:18:51.291Z,11.85
2022-12-29T04:20:12.909Z,11.68
2022-12-29T04:21:14.564Z,12.52
2022-12-29T04:22:16.168Z,11.67
2022-12-29T04:23:20.015Z,11.48
2022-12-29T04:24:21.738Z,12.23
2022-12-29T04:25:23.704Z,11.52
2022-12-29T04:26:25.335Z,12.60
2022-12-29T04:27:26.941Z,11.82
2022-12-29T04:28:28.632Z,12.55
2022-12-29T04:29:30.427Z,11.30
2022-12-29T04:30:32.031Z,12.70
2022-12-29T04:31:33.704Z,12.20
2022-12-29T04:32:36.438Z,12.30
2022-12-29T04:33:38.063Z,11.65
2022-12-29T04:34:39.954Z,11.68
2022-12-29T04:35:41.560Z,12.00
2022-12-29T04:36:43.142Z,12.02
2022-12-29T04:37:44.731Z,12.13
2022-12-29T04:38:46.328Z,11.82
2022-12-29T04:39:47.983Z,11.95
2022-12-29T04:40:49.720Z,11.57
2022-12-29T04:41:51.312Z,12.90
2022-12-29T04:42:52.949Z,12.77
2022-12-29T04:43:54.552Z,12.15
2022-12-29T04:44:56.146Z,13.07
2022-12-29T04:45:57.926Z,11.57
2022-12-29T04:47:01.024Z,12.15
2022-12-29T04:48:02.644Z,12.20
2022-12-29T04:49:09.472Z,12.33
2022-12-29T04:50:11.282Z,11.60
2022-12-29T04:51:12.878Z,13.20
2022-12-29T04:52:14.568Z,11.82
2022-12-29T04:53:17.164Z,12.70
2022-12-29T04:54:19.011Z,11.95
2022-12-29T04:55:20.610Z,11.40
2022-12-29T04:56:22.213Z,12.30
2022-12-29T04:57:23.885Z,13.00
2022-12-29T04:58:25.551Z,12.75
2022-12-29T04:59:27.149Z,11.50
2022-12-29T05:00:28.737Z,11.80
2022-12-29T05:01:30.402Z,13.25
2022-12-29T05:02:32.415Z,12.75
2022-12-29T05:03:34.211Z,12.07
2022-12-29T05:04:35.799Z,12.35
2022-12-29T05:05:37.399Z,12.50
2022-12-29T05:06:39.009Z,11.90
2022-12-29T05:07:40.718Z,12.57
2022-12-29T05:08:42.341Z,12.40
2022-12-29T05:09:43.924Z,12.30
2022-12-29T05:10:46.559Z,12.93
2022-12-29T05:11:48.187Z,12.40
2022-12-29T05:12:49.831Z,12.32
2022-12-29T05:13:51.436Z,11.67
2022-12-29T05:14:53.096Z,11.18
2022-12-29T05:15:54.890Z,12.32
2022-12-29T05:16:56.536Z,13.10
2022-12-29T05:17:58.171Z,13.15
2022-12-29T05:18:59.816Z,12.27
2022-12-29T05:20:01.484Z,11.80
2022-12-29T05:21:03.084Z,12.80
2022-12-29T05:22:04.960Z,12.77
2022-12-29T05:23:06.567Z,13.35
2022-12-29T05:24:08.271Z,13.55
2022-12-29T05:25:10.077Z,12.55
2022-12-29T05:26:11.659Z,14.18
2022-12-29T05:27:13.279Z,14.93
2022-12-29T05:28:14.924Z,16.20
2022-12-29T05:29:16.603Z,17.55
2022-12-29T05:30:19.838Z,14.77
2022-12-29T05:31:21.535Z,13.98
2022-12-29T05:32:23.190Z,14.10
2022-12-29T05:33:24.778Z,14.03
2022-12-29T05:34:26.491Z,13.98
2022-12-29T05:35:28.198Z,13.20
2022-12-29T05:36:34.402Z,12.95
2022-12-29T05:37:39.009Z,13.10
2022-12-29T05:38:40.603Z,13.85
2022-12-29T05:39:42.260Z,13.18
2022-12-29T05:40:44.462Z,14.13
2022-12-29T05:41:46.054Z,12.85
2022-12-29T05:42:47.647Z,15.13
2022-12-29T05:43:49.237Z,14.27
2022-12-29T05:44:54.876Z,14.55
2022-12-29T05:45:56.913Z,13.93
2022-12-29T05:46:58.632Z,12.82
2022-12-29T05:48:00.309Z,12.93
2022-12-29T05:49:01.920Z,13.93
2022-12-29T05:50:03.744Z,12.25
2022-12-29T05:51:05.571Z,13.60
2022-12-29T05:52:07.172Z,15.80
2022-12-29T05:53:08.880Z,13.82
2022-12-29T05:54:10.475Z,14.00
2022-12-29T05:55:12.274Z,13.88
2022-12-29T05:56:13.920Z,14.68
2022-12-29T05:57:15.536Z,14.05
2022-12-29T05:58:17.904Z,14.00
2022-12-29T05:59:19.495Z,14.88
2022-12-29T06:00:21.071Z,15.40
2022-12-29T06:01:22.733Z,14.43
2022-12-29T06:02:24.573Z,12.75
2022-12-29T06:03:26.523Z,12.85
2022-12-29T06:04:28.506Z,12.88
2022-12-29T06:05:30.118Z,13.38
2022-12-29T06:06:31.781Z,13.43
2022-12-29T06:07:33.519Z,13.50
2022-12-29T06:08:35.157Z,13.85
2022-12-29T06:09:36.768Z,13.48
2022-12-29T06:10:38.386Z,12.32
2022-12-29T06:11:40.096Z,13.75
2022-12-29T06:12:41.702Z,13.15
2022-12-29T06:13:43.691Z,13.13
2022-12-29T06:14:45.287Z,14.35
2022-12-29T06:15:49.329Z,13.25
2022-12-29T06:16:51.031Z,13.52
2022-12-29T06:17:52.968Z,13.20
2022-12-29T06:18:54.706Z,13.65
2022-12-29T06:19:56.332Z,13.63
2022-12-29T06:21:04.475Z,13.90
2022-12-29T06:22:06.188Z,13.27
2022-12-29T06:23:07.846Z,13.40
2022-12-29T06:24:09.451Z,13.45
2022-12-29T06:25:11.097Z,13.35
2022-12-29T06:26:12.674Z,13.13
2022-12-29T06:27:15.064Z,14.13
2022-12-29T06:28:17.631Z,13.30
2022-12-29T06:29:19.281Z,12.77
2022-12-29T06:30:20.883Z,13.65
2022-12-29T06:31:22.751Z,13.98
2022-12-29T06:32:24.495Z,13.43
2022-12-29T06:33:26.194Z,14.52
2022-12-29T06:34:27.827Z,14.38
2022-12-29T06:35:29.577Z,14.02
2022-12-29T06:36:31.192Z,14.38
2022-12-29T06:37:33.095Z,13.93
2022-12-29T06:38:36.351Z,14.88
2022-12-29T06:39:37.940Z,13.18
2022-12-29T06:40:39.604Z,14.55
2022-12-29T06:41:41.235Z,14.93
2022-12-29T06:42:42.901Z,13.60
2022-12-29T06:43:44.578Z,13.77
2022-12-29T06:44:46.160Z,15.32
2022-12-29T06:45:47.931Z,14.23
2022-12-29T06:46:50.087Z,14.40
2022-12-29T06:47:51.683Z,15.32
2022-12-29T06:48:53.270Z,15.43
2022-12-29T06:49:54.864Z,13.53
2022-12-29T06:50:56.604Z,14.52
2022-12-29T06:51:59.496Z,14.73
2022-12-29T06:53:01.132Z,15.55
2022-12-29T06:54:02.853Z,14.32
2022-12-29T06:55:04.949Z,16.10
2022-12-29T06:56:06.746Z,15.20
2022-12-29T06:57:08.363Z,14.32
2022-12-29T06:58:10.504Z,15.02
2022-12-29T06:59:12.124Z,14.77
2022-12-29T07:00:16.951Z,15.23
2022-12-29T07:01:22.601Z,14.05
2022-12-29T07:02:26.294Z,14.70
2022-12-29T07:03:28.242Z,15.85
2022-12-29T07:04:30.035Z,14.88
2022-12-29T07:05:33.655Z,15.85
2022-12-29T07:06:35.282Z,14.65
2022-12-29T07:07:36.965Z,16.15
2022-12-29T07:08:39.471Z,15.50
2022-12-29T07:09:41.118Z,15.80
2022-12-29T07:10:42.746Z,15.70
2022-12-29T07:11:44.393Z,15.60
2022-12-29T07:12:46.067Z,15.60
2022-12-29T07:13:47.793Z,15.85
2022-12-29T07:14:49.775Z,16.15
2022-12-29T07:15:51.409Z,16.30
2022-12-29T07:16:53.162Z,15.93
2022-12-29T07:17:54.836Z,14.95
2022-12-29T07:18:57.086Z,15.50
2022-12-29T07:19:58.677Z,14.55
2022-12-29T07:21:00.370Z,15.88
2022-12-29T07:22:02.358Z,15.88
2022-12-29T07:23:03.943Z,15.98
2022-12-29T07:24:06.032Z,16.00
2022-12-29T07:25:08.017Z,14.98
2022-12-29T07:26:11.064Z,14.77
2022-12-29T07:27:12.746Z,15.40
2022-12-29T07:28:14.447Z,16.42
2022-12-29T07:29:16.070Z,15.82
2022-12-29T07:30:17.721Z,15.63
2022-12-29T07:31:20.777Z,15.80
2022-12-29T07:32:22.639Z,15.48
2022-12-29T07:33:24.305Z,16.97
2022-12-29T07:34:26.007Z,15.98
2022-12-29T07:35:27.649Z,15.55
2022-12-29T07:36:34.320Z,16.58
2022-12-29T07:37:36.476Z,16.75
2022-12-29T07:38:38.098Z,16.95
2022-12-29T07:39:39.794Z,16.02
2022-12-29T07:40:41.578Z,16.30
2022-12-29T07:41:43.180Z,15.32
2022-12-29T07:42:44.769Z,15.90
2022-12-29T07:43:52.290Z,15.00
2022-12-29T07:44:54.032Z,16.60
2022-12-29T07:45:55.958Z,16.17
2022-12-29T07:46:58.845Z,16.27
2022-12-29T07:48:00.837Z,16.35
2022-12-29T07:49:02.448Z,15.23
2022-12-29T07:50:04.734Z,16.55
2022-12-29T07:51:06.482Z,16.08
2022-12-29T07:52:08.112Z,16.25
2022-12-29T07:53:09.802Z,16.33
2022-12-29T07:54:13.108Z,15.38
2022-12-29T07:55:16.023Z,14.90
2022-12-29T07:56:17.662Z,14.77
2022-12-29T07:57:19.302Z,17.77
2022-12-29T07:58:20.894Z,16.65
2022-12-29T07:59:22.530Z,16.05
2022-12-29T08:00:24.130Z,15.48
2022-12-29T08:01:25.940Z,16.35
2022-12-29T08:02:27.874Z,16.33
2022-12-29T08:03:29.816Z,17.27
2022-12-29T08:04:31.586Z,16.25
2022-12-29T08:05:33.553Z,16.30
2022-12-29T08:06:35.681Z,17.23
2022-12-29T08:07:37.317Z,16.65
2022-12-29T08:08:39.365Z,16.95
2022-12-29T08:09:40.972Z,16.58
2022-12-29T08:10:42.600Z,17.02
2022-12-29T08:11:44.555Z,16.70
2022-12-29T08:12:46.163Z,16.73
2022-12-29T08:13:47.828Z,17.33
2022-12-29T08:14:49.443Z,16.83
2022-12-29T08:15:51.078Z,17.38
2022-12-29T08:16:52.673Z,16.40
2022-12-29T08:17:54.293Z,15.87
2022-12-29T08:18:55.961Z,16.52
2022-12-29T08:19:57.572Z,16.55
2022-12-29T08:21:05.778Z,16.08
2022-12-29T08:22:07.442Z,15.90
2022-12-29T08:23:09.063Z,17.88
2022-12-29T08:24:10.752Z,16.80
2022-12-29T08:25:12.361Z,16.90
2022-12-29T08:26:13.999Z,17.03
2022-12-29T08:27:20.300Z,16.73
2022-12-29T08:28:22.712Z,16.40
2022-12-29T08:29:25.295Z,16.77
2022-12-29T08:30:27.041Z,16.20
2022-12-29T08:31:28.716Z,17.38
2022-12-29T08:32:30.530Z,16.73
2022-12-29T08:33:32.246Z,17.80
2022-12-29T08:34:33.918Z,18.38
2022-12-29T08:35:36.066Z,17.80
2022-12-29T08:36:37.687Z,21.85
2022-12-29T08:37:39.349Z,25.50
2022-12-29T08:38:41.088Z,26.63
2022-12-29T08:39:42.785Z,21.20
2022-12-29T08:40:44.802Z,20.17
2022-12-29T08:41:46.401Z,19.90
2022-12-29T08:42:48.025Z,20.17
2022-12-29T08:43:50.176Z,19.08
2022-12-29T08:44:51.914Z,19.13
2022-12-29T08:45:53.747Z,17.95
2022-12-29T08:46:55.402Z,19.48
2022-12-29T08:47:57.075Z,18.55
2022-12-29T08:48:58.706Z,19.10
2022-12-29T08:50:00.364Z,19.20
2022-12-29T08:51:02.067Z,18.43
2022-12-29T08:52:04.841Z,18.70
2022-12-29T08:53:06.480Z,18.05
2022-12-29T08:54:08.136Z,18.10
2022-12-29T08:55:10.126Z,18.83
2022-12-29T08:56:12.447Z,17.48
2022-12-29T08:57:14.205Z,18.95
2022-12-29T08:58:17.496Z,19.63
2022-12-29T08:59:19.117Z,19.43
2022-12-29T09:00:21.754Z,18.50
2022-12-29T09:01:23.550Z,18.13
2022-12-29T09:02:25.959Z,18.25
2022-12-29T09:04:04.482Z,19.40
2022-12-29T09:04:50.093Z,18.60
2022-12-29T09:05:52.379Z,18.35
2022-12-29T09:06:54.103Z,19.10
2022-12-29T09:07:55.713Z,19.55
2022-12-29T09:08:57.371Z,18.13
2022-12-29T09:09:58.976Z,18.92
2022-12-29T09:11:10.927Z,18.05
2022-12-29T09:12:12.690Z,17.75
2022-12-29T09:13:14.324Z,19.48
2022-12-29T09:14:15.961Z,19.47
2022-12-29T09:15:17.622Z,17.58
2022-12-29T09:16:19.634Z,19.52
2022-12-29T09:17:39.661Z,18.17
2022-12-29T09:18:41.318Z,17.17
2022-12-29T09:19:42.918Z,17.95
2022-12-29T09:20:44.519Z,17.52
2022-12-29T09:21:46.209Z,17.52
2022-12-29T09:22:48.203Z,19.00
2022-12-29T09:23:49.896Z,17.77
2022-12-29T09:24:51.499Z,18.58
2022-12-29T09:25:53.602Z,17.92
2022-12-29T09:26:55.282Z,18.20
2022-12-29T09:27:56.936Z,18.73
2022-12-29T09:28:58.606Z,17.27
2022-12-29T09:30:00.258Z,18.37
2022-12-29T09:31:01.916Z,19.67
2022-12-29T09:32:07.542Z,18.77
2022-12-29T09:33:09.452Z,20.63
2022-12-29T09:34:11.087Z,20.80
2022-12-29T09:35:13.400Z,20.10
2022-12-29T09:36:15.059Z,19.63
2022-12-29T09:37:16.766Z,19.40
2022-12-29T09:38:18.357Z,19.33
2022-12-29T09:39:19.949Z,18.63
2022-12-29T09:40:31.075Z,19.02
2022-12-29T09:41:41.933Z,19.77
2022-12-29T09:42:57.069Z,19.83
2022-12-29T09:44:14.444Z,20.98
2022-12-29T09:45:52.245Z,19.98
2022-12-29T09:46:54.345Z,20.30
2022-12-29T09:47:55.975Z,20.95
2022-12-29T09:49:13.240Z,19.67
2022-12-29T09:50:31.772Z,18.67
2022-12-29T09:51:33.485Z,18.83
2022-12-29T09:52:51.723Z,20.13
2022-12-29T09:53:57.243Z,19.55
2022-12-29T09:55:10.404Z,19.80
2022-12-29T09:56:18.507Z,20.20
2022-12-29T09:57:43.686Z,19.10
2022-12-29T09:59:01.363Z,19.45
2022-12-29T10:00:12.870Z,20.30
2022-12-29T10:01:14.443Z,19.73
2022-12-29T10:02:33.505Z,20.05
2022-12-29T10:03:49.087Z,17.95
2022-12-29T10:04:50.707Z,18.60
2022-12-29T10:06:11.636Z,21.40
2022-12-29T10:07:31.598Z,19.23
2022-12-29T10:08:46.224Z,19.70
2022-12-29T10:09:56.968Z,19.50
2022-12-29T10:11:05.327Z,19.90
2022-12-29T10:12:37.809Z,19.13
2022-12-29T10:14:04.389Z,19.55
2022-12-29T10:15:19.743Z,19.00
2022-12-29T10:16:33.305Z,18.98
2022-12-29T10:17:41.244Z,18.00
2022-12-29T10:19:08.619Z,18.05
2022-12-29T10:20:28.622Z,19.00
2022-12-29T10:21:39.154Z,17.50
2022-12-29T10:22:49.610Z,19.33
2022-12-29T10:23:52.687Z,20.52
2022-12-29T10:24:54.580Z,21.38
2022-12-29T10:25:57.685Z,21.60
2022-12-29T10:26:59.366Z,19.77
2022-12-29T10:28:03.148Z,20.85
2022-12-29T10:29:06.060Z,22.50
2022-12-29T10:30:13.402Z,20.95
2022-12-29T10:31:21.023Z,20.15
2022-12-29T10:32:37.703Z,20.20
2022-12-29T10:33:41.795Z,19.35
2022-12-29T10:34:46.124Z,19.67
2022-12-29T10:35:47.794Z,19.65
2022-12-29T10:36:50.903Z,19.08
2022-12-29T10:38:02.924Z,20.38
2022-12-29T10:39:24.556Z,18.63
2022-12-29T10:40:37.647Z,19.10
2022-12-29T10:41:47.728Z,20.55
2022-12-29T10:42:53.326Z,18.85
2022-12-29T10:43:56.008Z,20.05
2022-12-29T10:44:57.784Z,20.00
2022-12-29T10:46:03.599Z,19.52
2022-12-29T10:47:12.625Z,19.33
2022-12-29T10:48:20.755Z,21.58
2022-12-29T10:49:22.670Z,20.38
2022-12-29T10:50:25.754Z,20.27
2022-12-29T10:51:29.528Z,19.65
2022-12-29T10:52:31.164Z,19.85
2022-12-29T10:53:44.658Z,20.43
2022-12-29T10:54:57.942Z,19.95
2022-12-29T10:56:00.194Z,19.15
2022-12-29T10:57:04.637Z,19.85
2022-12-29T10:58:07.860Z,19.65
2022-12-29T10:59:31.296Z,20.52
2022-12-29T11:00:33.480Z,19.65
2022-12-29T11:01:48.498Z,20.10
2022-12-29T11:03:08.655Z,21.52
2022-12-29T11:04:23.858Z,20.15
2022-12-29T11:05:34.821Z,20.53
2022-12-29T11:06:37.244Z,20.25
2022-12-29T11:07:38.922Z,19.75
2022-12-29T11:09:02.700Z,20.70
2022-12-29T11:10:29.837Z,19.55
2022-12-29T11:11:35.501Z,20.17
2022-12-29T11:12:37.427Z,21.55
2022-12-29T11:13:52.633Z,20.77
2022-12-29T11:15:09.750Z,20.92
2022-12-29T11:16:12.779Z,20.08
2022-12-29T11:17:18.658Z,21.60
2022-12-29T11:18:26.389Z,19.35
2022-12-29T11:19:30.077Z,20.52
2022-12-29T11:20:39.497Z,20.02
2022-12-29T11:21:43.158Z,20.88
2022-12-29T11:22:45.363Z,19.30
2022-12-29T11:23:48.116Z,20.63
2022-12-29T11:24:50.962Z,20.05
2022-12-29T11:26:21.149Z,21.25
2022-12-29T11:27:24.888Z,21.70
2022-12-29T11:28:31.549Z,24.13
2022-12-29T11:29:40.471Z,22.25
2022-12-29T11:30:42.172Z,20.58
2022-12-29T11:31:47.930Z,21.25
2022-12-29T11:32:53.976Z,22.23
2022-12-29T11:33:55.730Z,21.55
2022-12-29T11:35:02.073Z,21.92
2022-12-29T11:36:06.898Z,22.02
2022-12-29T11:37:17.977Z,21.42
2022-12-29T11:38:24.598Z,20.95
2022-12-29T11:39:32.028Z,19.70
2022-12-29T11:40:35.226Z,20.83
2022-12-29T11:41:36.838Z,21.50
2022-12-29T11:42:42.826Z,20.63
2022-12-29T11:43:44.612Z,22.13
2022-12-29T11:44:47.820Z,21.33
2022-12-29T11:45:50.214Z,20.95
2022-12-29T11:46:52.410Z,21.88
2022-12-29T11:48:02.240Z,21.80
2022-12-29T11:49:05.227Z,20.33
2022-12-29T11:50:08.439Z,19.97
2022-12-29T11:51:10.554Z,20.40
2022-12-29T11:52:12.204Z,20.17
2022-12-29T11:53:22.342Z,20.25
2022-12-29T11:54:28.994Z,21.52
2022-12-29T11:55:30.761Z,20.98
2022-12-29T11:56:42.282Z,21.02
2022-12-29T11:57:43.885Z,19.90
2022-12-29T11:58:45.794Z,20.48
2022-12-29T11:59:51.604Z,21.33
2022-12-29T12:00:53.268Z,20.07
2022-12-29T12:01:55.134Z,21.08
2022-12-29T12:03:00.335Z,19.83
2022-12-29T12:04:04.436Z,22.23
2022-12-29T12:05:17.546Z,21.90
2022-12-29T12:06:21.196Z,21.38
2022-12-29T12:07:36.824Z,26.20
2022-12-29T12:09:15.804Z,21.95
2022-12-29T12:10:30.598Z,20.17
2022-12-29T12:11:39.067Z,21.27
2022-12-29T12:12:45.419Z,22.43
2022-12-29T12:13:52.869Z,22.02
2022-12-29T12:15:00.633Z,22.52
2022-12-29T12:16:07.491Z,21.08
2022-12-29T12:17:48.474Z,21.98
2022-12-29T12:18:55.527Z,20.63
2022-12-29T12:20:23.726Z,20.92
2022-12-29T12:21:45.375Z,20.17
2022-12-29T12:23:13.431Z,21.38
2022-12-29T12:24:19.270Z,23.23
2022-12-29T12:25:22.691Z,21.07
2022-12-29T12:27:01.326Z,22.33
2022-12-29T12:28:36.299Z,21.13
2022-12-29T12:29:47.246Z,21.92
2022-12-29T12:30:51.005Z,21.88
2022-12-29T12:32:00.170Z,22.15
2022-12-29T12:33:03.515Z,21.92
2022-12-29T12:34:07.355Z,20.20
2022-12-29T12:35:16.801Z,20.52
2022-12-29T12:36:28.918Z,21.90
2022-12-29T12:38:02.036Z,21.77
2022-12-29T12:39:19.047Z,25.02
2022-12-29T12:40:35.894Z,22.00
2022-12-29T12:41:43.416Z,21.25
2022-12-29T12:43:11.289Z,22.20
2022-12-29T12:44:24.553Z,20.98
2022-12-29T12:45:51.038Z,21.60
2022-12-29T12:47:14.473Z,21.27
2022-12-29T12:48:25.013Z,20.77
2022-12-29T12:49:29.355Z,20.73
2022-12-29T12:51:02.114Z,21.73
2022-12-29T12:52:18.322Z,22.27
2022-12-29T12:53:23.599Z,21.15
2022-12-29T12:54:49.678Z,20.30
2022-12-29T12:56:09.622Z,22.27
2022-12-29T12:57:20.579Z,20.20
2022-12-29T12:58:41.485Z,21.58
2022-12-29T13:00:03.084Z,22.20
2022-12-29T13:01:04.677Z,24.33
2022-12-29T13:02:49.523Z,23.65
2022-12-29T13:04:26.544Z,22.27
2022-12-29T13:06:05.350Z,23.58
2022-12-29T13:07:18.947Z,21.77
2022-12-29T13:08:32.387Z,23.15
2022-12-29T13:10:04.535Z,24.08
2022-12-29T13:11:34.221Z,23.17
2022-12-29T13:12:53.717Z,21.45
2022-12-29T13:14:22.244Z,22.30
2022-12-29T13:15:52.595Z,24.15
2022-12-29T13:17:01.343Z,23.60
2022-12-29T13:18:19.614Z,22.50
2022-12-29T13:20:13.724Z,24.92
2022-12-29T13:21:34.779Z,22.27
2022-12-29T13:23:05.365Z,23.42
2022-12-29T13:24:13.957Z,22.58
2022-12-29T13:25:27.567Z,23.48
2022-12-29T13:26:43.460Z,24.10
2022-12-29T13:27:58.885Z,23.95
2022-12-29T13:29:41.097Z,23.60
2022-12-29T13:30:58.418Z,23.98
2022-12-29T13:32:24.328Z,24.40
2022-12-29T13:33:55.550Z,22.55
2022-12-29T13:35:25.893Z,22.92
2022-12-29T13:36:31.537Z,23.58
2022-12-29T13:37:35.128Z,27.27
2022-12-29T13:38:39.405Z,27.80
2022-12-29T13:39:47.321Z,24.52
2022-12-29T13:40:51.976Z,25.90
2022-12-29T13:41:55.106Z,25.35
2022-12-29T13:42:56.727Z,26.30
2022-12-29T13:43:58.616Z,27.03
2022-12-29T13:45:05.378Z,25.73
2022-12-29T13:46:40.936Z,24.10
2022-12-29T13:48:06.972Z,28.20
2022-12-29T13:49:21.561Z,27.20
2022-12-29T13:50:25.621Z,27.85
2022-12-29T13:51:28.572Z,26.02
2022-12-29T13:52:56.023Z,24.80
2022-12-29T13:54:03.530Z,24.25
2022-12-29T13:55:27.303Z,27.23
2022-12-29T13:57:04.655Z,25.77
2022-12-29T13:58:21.076Z,24.90
2022-12-29T13:59:41.906Z,25.75
2022-12-29T14:01:03.776Z,26.90
2022-12-29T14:02:16.562Z,24.90
2022-12-29T14:03:30.195Z,25.15
2022-12-29T14:04:34.318Z,24.90
2022-12-29T14:05:35.935Z,26.90
2022-12-29T14:06:41.547Z,25.50
2022-12-29T14:07:43.271Z,25.85
2022-12-29T14:08:45.027Z,24.77
2022-12-29T14:09:47.750Z,26.23
2022-12-29T14:10:50.361Z,25.23
2022-12-29T14:11:51.950Z,24.08
2022-12-29T14:13:00.015Z,25.27
2022-12-29T14:14:13.015Z,25.92
2022-12-29T14:15:16.508Z,25.10
2022-12-29T14:16:37.399Z,25.90
2022-12-29T14:17:39.601Z,25.08
2022-12-29T14:18:44.905Z,26.65
2022-12-29T14:19:46.527Z,25.57
2022-12-29T14:20:57.811Z,25.17
2022-12-29T14:22:01.481Z,24.98
2022-12-29T14:23:11.768Z,24.85